sensor_id;sensor_type;location;lat;lon;timestamp;temperature;humidity
38746;DHT22;24488;0.000;0.000;2023-03-23T00:02:22;22.80;38.10
38746;DHT22;24488;0.000;0.000;2023-03-23T00:04:49;22.80;38.10
38746;DHT22;24488;0.000;0.000;2023-03-23T00:07:16;22.80;38.10
38746;DHT22;24488;0.000;0.000;2023-03-23T00:09:49;22.80;37.70
38746;DHT22;24488;0.000;0.000;2023-03-23T00:12:26;22.80;38.20
38746;DHT22;24488;0.000;0.000;2023-03-23T00:17:29;22.80;38.20
38746;DHT22;24488;0.000;0.000;2023-03-23T00:19:55;22.80;37.70
38746;DHT22;24488;0.000;0.000;2023-03-23T00:22:21;22.80;38.20
38746;DHT22;24488;0.000;0.000;2023-03-23T00:24:50;22.80;38.20
38746;DHT22;24488;0.000;0.000;2023-03-23T00:27:16;22.80;38.20
38746;DHT22;24488;0.000;0.000;2023-03-23T00:29:42;22.80;37.80
38746;DHT22;24488;0.000;0.000;2023-03-23T00:32:10;22.70;38.20
38746;DHT22;24488;0.000;0.000;2023-03-23T00:34:38;22.70;38.20
38746;DHT22;24488;0.000;0.000;2023-03-23T00:37:05;22.70;38.20
38746;DHT22;24488;0.000;0.000;2023-03-23T00:39:33;22.70;37.80
38746;DHT22;24488;0.000;0.000;2023-03-23T00:42:02;22.70;38.20
38746;DHT22;24488;0.000;0.000;2023-03-23T00:44:28;22.70;38.20
38746;DHT22;24488;0.000;0.000;2023-03-23T00:46:55;22.70;38.20
38746;DHT22;24488;0.000;0.000;2023-03-23T00:49:22;22.70;37.80
38746;DHT22;24488;0.000;0.000;2023-03-23T00:51:50;22.70;38.30
38746;DHT22;24488;0.000;0.000;2023-03-23T00:54:16;22.70;38.20
38746;DHT22;24488;0.000;0.000;2023-03-23T00:56:41;22.60;38.20
38746;DHT22;24488;0.000;0.000;2023-03-23T00:59:07;22.60;37.80
38746;DHT22;24488;0.000;0.000;2023-03-23T01:01:33;22.60;38.30
38746;DHT22;24488;0.000;0.000;2023-03-23T01:04:00;22.60;38.30
38746;DHT22;24488;0.000;0.000;2023-03-23T01:06:28;22.60;38.30
38746;DHT22;24488;0.000;0.000;2023-03-23T01:08:57;22.60;38.30
38746;DHT22;24488;0.000;0.000;2023-03-23T01:11:24;22.60;37.80
38746;DHT22;24488;0.000;0.000;2023-03-23T01:13:50;22.60;38.30
38746;DHT22;24488;0.000;0.000;2023-03-23T01:16:16;22.60;38.30
38746;DHT22;24488;0.000;0.000;2023-03-23T01:18:42;22.60;38.30
38746;DHT22;24488;0.000;0.000;2023-03-23T01:21:09;22.60;37.80
38746;DHT22;24488;0.000;0.000;2023-03-23T01:23:36;22.60;38.30
38746;DHT22;24488;0.000;0.000;2023-03-23T01:28:33;22.60;38.30
38746;DHT22;24488;0.000;0.000;2023-03-23T01:31:00;22.60;37.80
38746;DHT22;24488;0.000;0.000;2023-03-23T01:33:28;22.60;38.30
38746;DHT22;24488;0.000;0.000;2023-03-23T01:35:53;22.60;38.30
38746;DHT22;24488;0.000;0.000;2023-03-23T01:38:19;22.60;38.30
38746;DHT22;24488;0.000;0.000;2023-03-23T01:40:45;22.50;37.80
38746;DHT22;24488;0.000;0.000;2023-03-23T01:43:14;22.60;38.30
38746;DHT22;24488;0.000;0.000;2023-03-23T01:45:41;22.50;38.30
38746;DHT22;24488;0.000;0.000;2023-03-23T01:48:09;22.50;38.30
38746;DHT22;24488;0.000;0.000;2023-03-23T01:50:59;22.50;37.80
38746;DHT22;24488;0.000;0.000;2023-03-23T01:53:26;22.50;38.30
38746;DHT22;24488;0.000;0.000;2023-03-23T01:55:55;22.50;38.30
38746;DHT22;24488;0.000;0.000;2023-03-23T01:58:25;22.50;38.30
38746;DHT22;24488;0.000;0.000;2023-03-23T02:00:55;22.50;37.80
38746;DHT22;24488;0.000;0.000;2023-03-23T02:03:24;22.50;38.30
38746;DHT22;24488;0.000;0.000;2023-03-23T02:05:50;22.50;38.40
38746;DHT22;24488;0.000;0.000;2023-03-23T02:08:16;22.50;38.30
38746;DHT22;24488;0.000;0.000;2023-03-23T02:10:43;22.50;37.80
38746;DHT22;24488;0.000;0.000;2023-03-23T02:13:09;22.50;38.30
38746;DHT22;24488;0.000;0.000;2023-03-23T02:21:17;22.40;37.90
38746;DHT22;24488;0.000;0.000;2023-03-23T02:29:06;22.40;38.30
38746;DHT22;24488;0.000;0.000;2023-03-23T02:31:43;22.40;37.90
38746;DHT22;24488;0.000;0.000;2023-03-23T02:36:53;22.40;38.30
38746;DHT22;24488;0.000;0.000;2023-03-23T02:39:24;22.40;37.80
38746;DHT22;24488;0.000;0.000;2023-03-23T02:41:53;22.40;38.30
38746;DHT22;24488;0.000;0.000;2023-03-23T02:44:22;22.40;38.40
38746;DHT22;24488;0.000;0.000;2023-03-23T02:46:48;22.40;38.40
38746;DHT22;24488;0.000;0.000;2023-03-23T02:49:15;22.40;37.90
38746;DHT22;24488;0.000;0.000;2023-03-23T02:51:42;22.40;38.40
38746;DHT22;24488;0.000;0.000;2023-03-23T02:54:09;22.40;38.30
38746;DHT22;24488;0.000;0.000;2023-03-23T02:56:35;22.40;38.30
38746;DHT22;24488;0.000;0.000;2023-03-23T02:59:01;22.40;38.40
38746;DHT22;24488;0.000;0.000;2023-03-23T03:04:14;22.40;38.40
38746;DHT22;24488;0.000;0.000;2023-03-23T03:06:47;22.40;38.40
38746;DHT22;24488;0.000;0.000;2023-03-23T03:12:20;22.30;38.30
38746;DHT22;24488;0.000;0.000;2023-03-23T03:15:19;22.30;38.40
38746;DHT22;24488;0.000;0.000;2023-03-23T03:17:51;22.40;38.40
38746;DHT22;24488;0.000;0.000;2023-03-23T03:20:40;22.30;37.90
38746;DHT22;24488;0.000;0.000;2023-03-23T03:23:11;22.30;38.30
38746;DHT22;24488;0.000;0.000;2023-03-23T03:25:38;22.30;38.30
38746;DHT22;24488;0.000;0.000;2023-03-23T03:28:07;22.30;38.40
38746;DHT22;24488;0.000;0.000;2023-03-23T03:30:32;22.30;37.90
38746;DHT22;24488;0.000;0.000;2023-03-23T03:32:59;22.40;38.40
38746;DHT22;24488;0.000;0.000;2023-03-23T03:35:25;22.30;38.40
38746;DHT22;24488;0.000;0.000;2023-03-23T03:37:51;22.30;38.40
38746;DHT22;24488;0.000;0.000;2023-03-23T03:40:18;22.30;37.90
38746;DHT22;24488;0.000;0.000;2023-03-23T03:42:44;22.30;38.40
38746;DHT22;24488;0.000;0.000;2023-03-23T03:45:16;22.30;38.40
38746;DHT22;24488;0.000;0.000;2023-03-23T03:47:43;22.30;38.40
38746;DHT22;24488;0.000;0.000;2023-03-23T03:50:09;22.30;37.90
38746;DHT22;24488;0.000;0.000;2023-03-23T03:52:35;22.30;38.40
38746;DHT22;24488;0.000;0.000;2023-03-23T03:55:01;22.30;38.40
38746;DHT22;24488;0.000;0.000;2023-03-23T03:57:26;22.30;38.50
38746;DHT22;24488;0.000;0.000;2023-03-23T03:59:52;22.20;37.90
38746;DHT22;24488;0.000;0.000;2023-03-23T04:02:18;22.30;38.40
38746;DHT22;24488;0.000;0.000;2023-03-23T04:04:47;22.20;38.40
38746;DHT22;24488;0.000;0.000;2023-03-23T04:07:13;22.20;38.40
38746;DHT22;24488;0.000;0.000;2023-03-23T04:09:39;22.20;38.00
38746;DHT22;24488;0.000;0.000;2023-03-23T04:12:05;22.20;38.50
38746;DHT22;24488;0.000;0.000;2023-03-23T04:14:32;22.20;38.40
38746;DHT22;24488;0.000;0.000;2023-03-23T04:16:57;22.20;38.50
38746;DHT22;24488;0.000;0.000;2023-03-23T04:19:24;22.20;38.00
38746;DHT22;24488;0.000;0.000;2023-03-23T04:21:49;22.20;38.50
38746;DHT22;24488;0.000;0.000;2023-03-23T04:24:15;22.20;38.50
38746;DHT22;24488;0.000;0.000;2023-03-23T04:26:41;22.20;38.50
38746;DHT22;24488;0.000;0.000;2023-03-23T04:29:07;22.20;38.00
38746;DHT22;24488;0.000;0.000;2023-03-23T04:31:34;22.20;38.50
38746;DHT22;24488;0.000;0.000;2023-03-23T04:34:00;22.20;38.50
38746;DHT22;24488;0.000;0.000;2023-03-23T04:36:27;22.20;38.50
38746;DHT22;24488;0.000;0.000;2023-03-23T04:38:54;22.20;38.00
38746;DHT22;24488;0.000;0.000;2023-03-23T04:41:21;22.20;38.50
38746;DHT22;24488;0.000;0.000;2023-03-23T04:43:47;22.20;38.50
38746;DHT22;24488;0.000;0.000;2023-03-23T04:46:17;22.20;38.50
38746;DHT22;24488;0.000;0.000;2023-03-23T04:48:44;22.20;38.00
38746;DHT22;24488;0.000;0.000;2023-03-23T04:51:10;22.20;38.50
38746;DHT22;24488;0.000;0.000;2023-03-23T04:53:37;22.20;38.50
38746;DHT22;24488;0.000;0.000;2023-03-23T04:56:03;22.20;38.60
38746;DHT22;24488;0.000;0.000;2023-03-23T04:58:29;22.20;38.00
38746;DHT22;24488;0.000;0.000;2023-03-23T05:00:59;22.20;38.50
38746;DHT22;24488;0.000;0.000;2023-03-23T05:03:25;22.20;38.50
38746;DHT22;24488;0.000;0.000;2023-03-23T05:05:52;22.20;38.60
38746;DHT22;24488;0.000;0.000;2023-03-23T05:08:19;22.20;38.00
38746;DHT22;24488;0.000;0.000;2023-03-23T05:10:52;22.20;38.50
38746;DHT22;24488;0.000;0.000;2023-03-23T05:13:19;22.20;38.60
38746;DHT22;24488;0.000;0.000;2023-03-23T05:15:44;22.20;38.60
38746;DHT22;24488;0.000;0.000;2023-03-23T05:18:10;22.10;38.00
38746;DHT22;24488;0.000;0.000;2023-03-23T05:20:36;22.20;38.50
38746;DHT22;24488;0.000;0.000;2023-03-23T05:23:02;22.20;38.50
38746;DHT22;24488;0.000;0.000;2023-03-23T05:25:27;22.20;38.60
38746;DHT22;24488;0.000;0.000;2023-03-23T05:27:53;22.10;38.00
38746;DHT22;24488;0.000;0.000;2023-03-23T05:30:19;22.20;38.60
38746;DHT22;24488;0.000;0.000;2023-03-23T05:32:46;22.20;38.50
38746;DHT22;24488;0.000;0.000;2023-03-23T05:35:16;22.20;38.50
38746;DHT22;24488;0.000;0.000;2023-03-23T05:37:42;22.20;38.10
38746;DHT22;24488;0.000;0.000;2023-03-23T05:40:09;22.20;38.50
38746;DHT22;24488;0.000;0.000;2023-03-23T05:42:37;22.10;38.50
38746;DHT22;24488;0.000;0.000;2023-03-23T05:45:05;22.20;38.60
38746;DHT22;24488;0.000;0.000;2023-03-23T05:47:31;22.20;38.60
38746;DHT22;24488;0.000;0.000;2023-03-23T05:49:57;22.20;38.00
38746;DHT22;24488;0.000;0.000;2023-03-23T05:52:23;22.20;38.50
38746;DHT22;24488;0.000;0.000;2023-03-23T05:54:51;22.30;38.50
38746;DHT22;24488;0.000;0.000;2023-03-23T05:57:17;22.30;38.50
38746;DHT22;24488;0.000;0.000;2023-03-23T05:59:43;22.30;38.10
38746;DHT22;24488;0.000;0.000;2023-03-23T06:02:10;22.30;38.60
38746;DHT22;24488;0.000;0.000;2023-03-23T06:04:36;22.30;38.60
38746;DHT22;24488;0.000;0.000;2023-03-23T06:07:03;22.30;38.50
38746;DHT22;24488;0.000;0.000;2023-03-23T06:09:29;22.30;38.10
38746;DHT22;24488;0.000;0.000;2023-03-23T06:11:55;22.40;38.60
38746;DHT22;24488;0.000;0.000;2023-03-23T06:14:21;22.40;38.60
38746;DHT22;24488;0.000;0.000;2023-03-23T06:16:47;22.40;38.60
38746;DHT22;24488;0.000;0.000;2023-03-23T06:19:13;22.40;38.20
38746;DHT22;24488;0.000;0.000;2023-03-23T06:21:39;22.40;38.60
38746;DHT22;24488;0.000;0.000;2023-03-23T06:24:05;22.40;38.60
38746;DHT22;24488;0.000;0.000;2023-03-23T06:26:35;22.40;38.60
38746;DHT22;24488;0.000;0.000;2023-03-23T06:29:02;22.40;38.20
38746;DHT22;24488;0.000;0.000;2023-03-23T06:31:36;22.40;38.60
38746;DHT22;24488;0.000;0.000;2023-03-23T06:34:04;22.40;38.60
38746;DHT22;24488;0.000;0.000;2023-03-23T06:36:29;22.40;38.60
38746;DHT22;24488;0.000;0.000;2023-03-23T06:38:55;22.40;38.10
38746;DHT22;24488;0.000;0.000;2023-03-23T06:41:21;22.40;38.60
38746;DHT22;24488;0.000;0.000;2023-03-23T06:43:47;22.40;38.60
38746;DHT22;24488;0.000;0.000;2023-03-23T06:46:12;22.50;38.60
38746;DHT22;24488;0.000;0.000;2023-03-23T06:48:38;22.50;38.20
38746;DHT22;24488;0.000;0.000;2023-03-23T06:51:04;22.50;39.20
38746;DHT22;24488;0.000;0.000;2023-03-23T06:53:30;22.40;38.60
38746;DHT22;24488;0.000;0.000;2023-03-23T06:55:55;22.40;38.60
38746;DHT22;24488;0.000;0.000;2023-03-23T06:58:22;22.50;38.20
38746;DHT22;24488;0.000;0.000;2023-03-23T07:00:52;22.50;38.60
38746;DHT22;24488;0.000;0.000;2023-03-23T07:03:24;22.50;38.60
38746;DHT22;24488;0.000;0.000;2023-03-23T07:05:51;22.50;38.50
38746;DHT22;24488;0.000;0.000;2023-03-23T07:08:17;22.50;38.10
38746;DHT22;24488;0.000;0.000;2023-03-23T07:10:42;22.50;38.60
38746;DHT22;24488;0.000;0.000;2023-03-23T07:13:08;22.50;39.10
38746;DHT22;24488;0.000;0.000;2023-03-23T07:15:35;22.60;38.60
38746;DHT22;24488;0.000;0.000;2023-03-23T07:18:00;22.60;38.20
38746;DHT22;24488;0.000;0.000;2023-03-23T07:20:26;22.60;38.70
38746;DHT22;24488;0.000;0.000;2023-03-23T07:22:53;22.60;38.70
38746;DHT22;24488;0.000;0.000;2023-03-23T07:25:19;22.50;38.60
38746;DHT22;24488;0.000;0.000;2023-03-23T07:27:45;22.60;38.20
38746;DHT22;24488;0.000;0.000;2023-03-23T07:30:11;22.50;38.60
38746;DHT22;24488;0.000;0.000;2023-03-23T07:32:37;22.60;38.60
38746;DHT22;24488;0.000;0.000;2023-03-23T07:35:03;22.60;38.60
38746;DHT22;24488;0.000;0.000;2023-03-23T07:37:29;22.60;38.50
38746;DHT22;24488;0.000;0.000;2023-03-23T07:39:55;22.60;38.10
38746;DHT22;24488;0.000;0.000;2023-03-23T07:42:20;22.70;39.20
38746;DHT22;24488;0.000;0.000;2023-03-23T07:44:46;22.60;38.60
38746;DHT22;24488;0.000;0.000;2023-03-23T07:47:11;22.60;38.60
38746;DHT22;24488;0.000;0.000;2023-03-23T07:49:38;22.60;38.10
38746;DHT22;24488;0.000;0.000;2023-03-23T07:52:04;22.30;38.40
38746;DHT22;24488;0.000;0.000;2023-03-23T07:54:29;22.60;38.60
38746;DHT22;24488;0.000;0.000;2023-03-23T07:56:55;22.60;38.60
38746;DHT22;24488;0.000;0.000;2023-03-23T07:59:21;22.60;38.20
38746;DHT22;24488;0.000;0.000;2023-03-23T08:01:46;22.60;38.60
38746;DHT22;24488;0.000;0.000;2023-03-23T08:04:12;22.60;38.60
38746;DHT22;24488;0.000;0.000;2023-03-23T08:06:38;22.60;38.50
38746;DHT22;24488;0.000;0.000;2023-03-23T08:09:04;22.70;38.10
38746;DHT22;24488;0.000;0.000;2023-03-23T08:11:34;22.70;38.60
38746;DHT22;24488;0.000;0.000;2023-03-23T08:14:00;22.70;38.60
38746;DHT22;24488;0.000;0.000;2023-03-23T08:16:25;22.70;38.60
38746;DHT22;24488;0.000;0.000;2023-03-23T08:18:51;22.70;38.20
38746;DHT22;24488;0.000;0.000;2023-03-23T08:21:17;22.70;38.60
38746;DHT22;24488;0.000;0.000;2023-03-23T08:23:42;22.70;38.60
38746;DHT22;24488;0.000;0.000;2023-03-23T08:26:09;22.60;38.60
38746;DHT22;24488;0.000;0.000;2023-03-23T08:28:35;22.70;38.10
38746;DHT22;24488;0.000;0.000;2023-03-23T08:31:08;22.70;38.60
38746;DHT22;24488;0.000;0.000;2023-03-23T08:33:35;22.70;38.60
38746;DHT22;24488;0.000;0.000;2023-03-23T08:36:02;22.70;38.60
38746;DHT22;24488;0.000;0.000;2023-03-23T08:38:28;22.70;38.10
38746;DHT22;24488;0.000;0.000;2023-03-23T08:41:00;22.70;39.00
38746;DHT22;24488;0.000;0.000;2023-03-23T08:43:28;22.70;38.60
38746;DHT22;24488;0.000;0.000;2023-03-23T08:45:54;22.70;39.20
38746;DHT22;24488;0.000;0.000;2023-03-23T08:48:20;22.70;38.20
38746;DHT22;24488;0.000;0.000;2023-03-23T08:50:47;22.70;38.60
38746;DHT22;24488;0.000;0.000;2023-03-23T08:53:12;22.70;38.60
38746;DHT22;24488;0.000;0.000;2023-03-23T08:55:38;22.80;38.60
38746;DHT22;24488;0.000;0.000;2023-03-23T08:58:05;22.70;38.10
38746;DHT22;24488;0.000;0.000;2023-03-23T09:00:31;22.80;38.60
38746;DHT22;24488;0.000;0.000;2023-03-23T09:02:57;22.80;38.60
38746;DHT22;24488;0.000;0.000;2023-03-23T09:05:24;22.70;38.60
38746;DHT22;24488;0.000;0.000;2023-03-23T09:07:53;22.80;38.20
38746;DHT22;24488;0.000;0.000;2023-03-23T09:10:20;22.80;38.70
38746;DHT22;24488;0.000;0.000;2023-03-23T09:12:47;22.80;38.70
38746;DHT22;24488;0.000;0.000;2023-03-23T09:15:14;22.80;38.70
38746;DHT22;24488;0.000;0.000;2023-03-23T09:17:42;22.80;38.20
38746;DHT22;24488;0.000;0.000;2023-03-23T09:20:10;22.70;38.60
38746;DHT22;24488;0.000;0.000;2023-03-23T09:22:41;22.80;38.60
38746;DHT22;24488;0.000;0.000;2023-03-23T09:25:12;22.80;38.60
38746;DHT22;24488;0.000;0.000;2023-03-23T09:27:39;22.80;38.20
38746;DHT22;24488;0.000;0.000;2023-03-23T09:30:06;22.80;38.70
38746;DHT22;24488;0.000;0.000;2023-03-23T09:32:34;22.80;38.60
38746;DHT22;24488;0.000;0.000;2023-03-23T09:35:03;22.80;38.70
38746;DHT22;24488;0.000;0.000;2023-03-23T09:37:32;22.80;38.70
38746;DHT22;24488;0.000;0.000;2023-03-23T09:40:00;22.80;38.20
38746;DHT22;24488;0.000;0.000;2023-03-23T09:42:34;22.80;38.70
38746;DHT22;24488;0.000;0.000;2023-03-23T09:45:28;22.80;38.60
38746;DHT22;24488;0.000;0.000;2023-03-23T09:51:08;22.90;38.70
38746;DHT22;24488;0.000;0.000;2023-03-23T09:53:41;22.80;38.60
38746;DHT22;24488;0.000;0.000;2023-03-23T09:56:10;22.90;38.70
38746;DHT22;24488;0.000;0.000;2023-03-23T09:58:41;22.80;38.20
38746;DHT22;24488;0.000;0.000;2023-03-23T10:01:14;22.90;38.70
38746;DHT22;24488;0.000;0.000;2023-03-23T10:03:43;22.90;38.70
38746;DHT22;24488;0.000;0.000;2023-03-23T10:06:11;22.90;38.80
38746;DHT22;24488;0.000;0.000;2023-03-23T10:08:49;22.90;38.30
38746;DHT22;24488;0.000;0.000;2023-03-23T10:11:20;22.80;38.70
38746;DHT22;24488;0.000;0.000;2023-03-23T10:16:34;22.90;38.70
38746;DHT22;24488;0.000;0.000;2023-03-23T10:21:29;23.00;38.80
38746;DHT22;24488;0.000;0.000;2023-03-23T10:32:02;22.90;39.10
38746;DHT22;24488;0.000;0.000;2023-03-23T10:34:44;22.90;38.80
38746;DHT22;24488;0.000;0.000;2023-03-23T10:37:12;22.90;38.30
38746;DHT22;24488;0.000;0.000;2023-03-23T10:42:23;22.90;38.70
38746;DHT22;24488;0.000;0.000;2023-03-23T10:44:57;22.90;38.60
38746;DHT22;24488;0.000;0.000;2023-03-23T10:47:24;22.90;38.20
38746;DHT22;24488;0.000;0.000;2023-03-23T10:49:51;23.00;38.70
38746;DHT22;24488;0.000;0.000;2023-03-23T10:52:27;22.90;38.70
38746;DHT22;24488;0.000;0.000;2023-03-23T10:57:31;22.90;38.20
38746;DHT22;24488;0.000;0.000;2023-03-23T11:00:01;22.90;38.70
38746;DHT22;24488;0.000;0.000;2023-03-23T11:05:27;22.90;38.70
38746;DHT22;24488;0.000;0.000;2023-03-23T11:07:59;22.90;38.20
38746;DHT22;24488;0.000;0.000;2023-03-23T11:10:27;22.90;38.70
38746;DHT22;24488;0.000;0.000;2023-03-23T11:13:04;22.90;38.70
38746;DHT22;24488;0.000;0.000;2023-03-23T11:15:36;22.90;38.70
38746;DHT22;24488;0.000;0.000;2023-03-23T11:18:04;22.90;38.20
38746;DHT22;24488;0.000;0.000;2023-03-23T11:20:36;22.90;38.70
38746;DHT22;24488;0.000;0.000;2023-03-23T11:28:43;23.00;38.80
38746;DHT22;24488;0.000;0.000;2023-03-23T11:31:11;22.90;38.70
38746;DHT22;24488;0.000;0.000;2023-03-23T11:36:33;22.90;38.30
38746;DHT22;24488;0.000;0.000;2023-03-23T11:39:00;22.90;38.70
38746;DHT22;24488;0.000;0.000;2023-03-23T11:41:31;22.90;38.70
38746;DHT22;24488;0.000;0.000;2023-03-23T11:44:01;23.00;38.80
38746;DHT22;24488;0.000;0.000;2023-03-23T11:46:34;23.00;38.30
38746;DHT22;24488;0.000;0.000;2023-03-23T11:49:12;23.00;38.80
38746;DHT22;24488;0.000;0.000;2023-03-23T11:51:59;23.00;38.80
38746;DHT22;24488;0.000;0.000;2023-03-23T11:54:34;22.90;38.70
38746;DHT22;24488;0.000;0.000;2023-03-23T11:57:06;22.90;38.30
38746;DHT22;24488;0.000;0.000;2023-03-23T11:59:37;23.00;38.80
38746;DHT22;24488;0.000;0.000;2023-03-23T12:02:24;22.90;38.70
38746;DHT22;24488;0.000;0.000;2023-03-23T12:05:07;22.90;38.70
38746;DHT22;24488;0.000;0.000;2023-03-23T12:07:39;22.90;38.30
38746;DHT22;24488;0.000;0.000;2023-03-23T12:10:24;22.90;38.80
38746;DHT22;24488;0.000;0.000;2023-03-23T12:13:01;23.00;38.80
38746;DHT22;24488;0.000;0.000;2023-03-23T12:16:00;23.00;38.30
38746;DHT22;24488;0.000;0.000;2023-03-23T12:21:34;23.00;38.80
38746;DHT22;24488;0.000;0.000;2023-03-23T12:27:00;23.00;38.30
38746;DHT22;24488;0.000;0.000;2023-03-23T12:38:01;23.00;38.30
38746;DHT22;24488;0.000;0.000;2023-03-23T12:48:33;23.00;38.30
38746;DHT22;24488;0.000;0.000;2023-03-23T12:51:08;23.00;38.80
38746;DHT22;24488;0.000;0.000;2023-03-23T12:56:26;22.90;38.40
38746;DHT22;24488;0.000;0.000;2023-03-23T12:59:01;22.90;38.80
38746;DHT22;24488;0.000;0.000;2023-03-23T13:01:36;22.90;38.80
38746;DHT22;24488;0.000;0.000;2023-03-23T13:06:35;22.90;38.40
38746;DHT22;24488;0.000;0.000;2023-03-23T13:11:39;23.30;39.10
38746;DHT22;24488;0.000;0.000;2023-03-23T13:20:43;22.90;38.90
38746;DHT22;24488;0.000;0.000;2023-03-23T13:26:01;23.00;38.30
38746;DHT22;24488;0.000;0.000;2023-03-23T13:28:29;23.00;38.80
38746;DHT22;24488;0.000;0.000;2023-03-23T13:33:32;23.00;38.80
38746;DHT22;24488;0.000;0.000;2023-03-23T13:36:10;23.00;38.30
38746;DHT22;24488;0.000;0.000;2023-03-23T13:38:38;23.00;38.80
38746;DHT22;24488;0.000;0.000;2023-03-23T13:41:08;23.00;38.80
38746;DHT22;24488;0.000;0.000;2023-03-23T13:43:36;23.00;38.80
38746;DHT22;24488;0.000;0.000;2023-03-23T13:46:11;23.00;38.40
38746;DHT22;24488;0.000;0.000;2023-03-23T13:48:44;23.00;38.90
38746;DHT22;24488;0.000;0.000;2023-03-23T13:53:50;23.00;38.90
38746;DHT22;24488;0.000;0.000;2023-03-23T13:56:21;23.00;38.40
38746;DHT22;24488;0.000;0.000;2023-03-23T13:59:05;23.00;38.90
38746;DHT22;24488;0.000;0.000;2023-03-23T14:02:27;23.00;38.90
38746;DHT22;24488;0.000;0.000;2023-03-23T14:05:26;23.00;38.40
38746;DHT22;24488;0.000;0.000;2023-03-23T14:07:57;23.00;38.90
38746;DHT22;24488;0.000;0.000;2023-03-23T14:10:30;23.00;38.40
38746;DHT22;24488;0.000;0.000;2023-03-23T14:13:01;23.00;38.90
38746;DHT22;24488;0.000;0.000;2023-03-23T14:15:28;23.00;38.90
38746;DHT22;24488;0.000;0.000;2023-03-23T14:17:55;23.00;38.90
38746;DHT22;24488;0.000;0.000;2023-03-23T14:20:25;23.00;38.40
38746;DHT22;24488;0.000;0.000;2023-03-23T14:22:55;23.00;38.80
38746;DHT22;24488;0.000;0.000;2023-03-23T14:25:21;23.00;38.80
38746;DHT22;24488;0.000;0.000;2023-03-23T14:27:51;23.00;38.80
38746;DHT22;24488;0.000;0.000;2023-03-23T14:30:19;23.00;38.40
38746;DHT22;24488;0.000;0.000;2023-03-23T14:32:46;23.00;38.90
38746;DHT22;24488;0.000;0.000;2023-03-23T14:35:16;23.00;38.90
38746;DHT22;24488;0.000;0.000;2023-03-23T14:37:46;23.00;38.90
38746;DHT22;24488;0.000;0.000;2023-03-23T14:40:13;23.00;38.40
38746;DHT22;24488;0.000;0.000;2023-03-23T14:42:41;23.00;38.90
38746;DHT22;24488;0.000;0.000;2023-03-23T14:45:07;23.00;38.80
38746;DHT22;24488;0.000;0.000;2023-03-23T14:47:38;23.10;38.90
38746;DHT22;24488;0.000;0.000;2023-03-23T14:50:24;23.10;38.50
38746;DHT22;24488;0.000;0.000;2023-03-23T14:52:59;23.10;38.90
38746;DHT22;24488;0.000;0.000;2023-03-23T14:55:30;23.10;39.00
38746;DHT22;24488;0.000;0.000;2023-03-23T14:58:05;23.10;38.90
38746;DHT22;24488;0.000;0.000;2023-03-23T15:00:36;23.10;38.50
38746;DHT22;24488;0.000;0.000;2023-03-23T15:03:05;23.10;39.00
38746;DHT22;24488;0.000;0.000;2023-03-23T15:05:33;23.10;39.00
38746;DHT22;24488;0.000;0.000;2023-03-23T15:08:08;23.10;38.90
38746;DHT22;24488;0.000;0.000;2023-03-23T15:10:38;23.10;38.50
38746;DHT22;24488;0.000;0.000;2023-03-23T15:13:04;23.10;39.00
38746;DHT22;24488;0.000;0.000;2023-03-23T15:15:31;23.10;38.90
38746;DHT22;24488;0.000;0.000;2023-03-23T15:17:59;23.10;39.00
38746;DHT22;24488;0.000;0.000;2023-03-23T15:22:51;23.10;39.00
38746;DHT22;24488;0.000;0.000;2023-03-23T15:25:22;23.10;38.90
38746;DHT22;24488;0.000;0.000;2023-03-23T15:27:55;23.10;38.90
38746;DHT22;24488;0.000;0.000;2023-03-23T15:30:47;23.10;38.50
38746;DHT22;24488;0.000;0.000;2023-03-23T15:33:14;23.10;39.00
38746;DHT22;24488;0.000;0.000;2023-03-23T15:35:41;23.10;38.90
38746;DHT22;24488;0.000;0.000;2023-03-23T15:38:18;23.10;38.50
38746;DHT22;24488;0.000;0.000;2023-03-23T15:40:48;23.10;39.00
38746;DHT22;24488;0.000;0.000;2023-03-23T15:43:16;23.10;39.00
38746;DHT22;24488;0.000;0.000;2023-03-23T15:48:29;23.10;38.50
38746;DHT22;24488;0.000;0.000;2023-03-23T15:50:55;23.10;39.00
38746;DHT22;24488;0.000;0.000;2023-03-23T15:53:23;23.10;39.00
38746;DHT22;24488;0.000;0.000;2023-03-23T15:55:52;23.10;39.00
38746;DHT22;24488;0.000;0.000;2023-03-23T15:58:18;23.00;38.50
38746;DHT22;24488;0.000;0.000;2023-03-23T16:00:43;23.10;39.00
38746;DHT22;24488;0.000;0.000;2023-03-23T16:03:13;23.10;39.00
38746;DHT22;24488;0.000;0.000;2023-03-23T16:05:49;23.10;39.00
38746;DHT22;24488;0.000;0.000;2023-03-23T16:08:15;23.10;38.60
38746;DHT22;24488;0.000;0.000;2023-03-23T16:10:42;23.10;39.00
38746;DHT22;24488;0.000;0.000;2023-03-23T16:13:07;23.00;39.00
38746;DHT22;24488;0.000;0.000;2023-03-23T16:15:33;23.00;38.90
38746;DHT22;24488;0.000;0.000;2023-03-23T16:17:59;23.10;39.00
38746;DHT22;24488;0.000;0.000;2023-03-23T16:20:25;23.10;38.50
38746;DHT22;24488;0.000;0.000;2023-03-23T16:22:53;23.10;39.00
38746;DHT22;24488;0.000;0.000;2023-03-23T16:25:19;23.00;39.00
38746;DHT22;24488;0.000;0.000;2023-03-23T16:27:45;23.00;38.90
38746;DHT22;24488;0.000;0.000;2023-03-23T16:32:41;23.10;39.00
38746;DHT22;24488;0.000;0.000;2023-03-23T16:35:07;23.00;38.90
38746;DHT22;24488;0.000;0.000;2023-03-23T16:37:33;23.10;39.00
38746;DHT22;24488;0.000;0.000;2023-03-23T16:40:00;23.00;38.50
38746;DHT22;24488;0.000;0.000;2023-03-23T16:42:26;23.00;39.00
38746;DHT22;24488;0.000;0.000;2023-03-23T16:44:51;23.00;38.90
38746;DHT22;24488;0.000;0.000;2023-03-23T16:47:19;23.00;38.90
38746;DHT22;24488;0.000;0.000;2023-03-23T16:49:47;23.10;38.60
38746;DHT22;24488;0.000;0.000;2023-03-23T16:52:13;23.10;38.50
38746;DHT22;24488;0.000;0.000;2023-03-23T16:54:38;23.10;39.00
38746;DHT22;24488;0.000;0.000;2023-03-23T16:57:04;23.10;39.00
38746;DHT22;24488;0.000;0.000;2023-03-23T16:59:31;23.10;39.00
38746;DHT22;24488;0.000;0.000;2023-03-23T17:01:56;23.00;38.50
38746;DHT22;24488;0.000;0.000;2023-03-23T17:04:29;23.00;39.00
38746;DHT22;24488;0.000;0.000;2023-03-23T17:06:55;23.10;39.00
38746;DHT22;24488;0.000;0.000;2023-03-23T17:09:25;23.00;39.00
38746;DHT22;24488;0.000;0.000;2023-03-23T17:11:52;23.00;38.50
38746;DHT22;24488;0.000;0.000;2023-03-23T17:14:18;23.00;39.10
38746;DHT22;24488;0.000;0.000;2023-03-23T17:16:44;23.10;39.00
38746;DHT22;24488;0.000;0.000;2023-03-23T17:19:10;23.00;39.00
38746;DHT22;24488;0.000;0.000;2023-03-23T17:21:35;23.10;38.50
38746;DHT22;24488;0.000;0.000;2023-03-23T17:24:02;23.10;39.00
38746;DHT22;24488;0.000;0.000;2023-03-23T17:26:27;23.10;39.00
38746;DHT22;24488;0.000;0.000;2023-03-23T17:28:53;23.10;39.00
38746;DHT22;24488;0.000;0.000;2023-03-23T17:31:19;23.00;38.50
38746;DHT22;24488;0.000;0.000;2023-03-23T17:33:44;23.10;39.00
38746;DHT22;24488;0.000;0.000;2023-03-23T17:36:10;23.10;38.90
38746;DHT22;24488;0.000;0.000;2023-03-23T17:38:35;23.10;39.00
38746;DHT22;24488;0.000;0.000;2023-03-23T17:41:01;23.10;38.60
38746;DHT22;24488;0.000;0.000;2023-03-23T17:43:29;23.10;39.10
38746;DHT22;24488;0.000;0.000;2023-03-23T17:45:55;23.10;39.10